Airfield :
LOGIN :

Register | Disclaimer

   EN    FR    IT 

 










Legend :    VFR   Marginal VFR   IFR   Intensive IFR   Very Intensive IFR
Visi :
Ceiling :
>= 8 km
>= 3000ft
5 to 8 km
1000 to 3000 ft
1500m to 5 km
500 to 1000 ft
800 to 1500m
200 to 500 ft
< 800m
< 200 ft
Symbols :   Thunderstorms  Fog  Heavy snow  Heavy precipitations  Wind > 20 kt
SIGMETs :     Misc.  Thunderstorms  Icing  Turbulence  Mountain Waves  Volcanic Ashes







- Airport Elevation : 776 ft
- IATA code : RMS


ETAR - Ramstein Air Base

CURRENT METAR :
  • 121256Z 25012KT 9999 BKN030 OVC041 03/M01 A2984 RMK AO2A RAB36E47 SLP118 P0000 T00341014 $

EXPIRED METARs :
  • 121247Z 25013KT 9999 BKN032 OVC041 03/M01 A2984 RMK AO2A RAB36E47 SLP117 $
  • 121236Z 25013KT 9999 -RA BKN030 OVC040 03/M02 A2984 RMK AO2A RAB36 SLP117 $
  • 121156Z 25012KT 9999 FEW023 BKN033 OVC044 03/M01 A2982 RMK AO2A RAB08E25 SLP110 P0000 60000 70011 T00321010 10045 20023 $
  • 121125Z 26011KT 9999 BKN020 BKN027 OVC037 03/01 A2981 RMK AO2A RAB08E25 SLP107 $
  • 121108Z 27012KT 9999 -RA BKN020 04/01 A2980 RMK AO2A RAB08 SLP102 $
  • 121056Z 24013G18KT 9999 BKN019 04/01 A2980 RMK AO2A PRESRR SLP102 T00390006 $

TAF AMD TAF ETAR
Valid from the 12 at 12:00 until the 13 at 16:00 UTC


121210Z 1212/1316 24012KT 9999 BKN020 OVC100 620206 QNH2978INS
TEMPO 1212/1213 24015G20KT 8000 -SHRA BKN015 520004
BECMG 1212/1213 26012KT 9999 SCT010 BKN030 620305 QNH2980INS
TEMPO 1213/1218 26010G20KT 8000 -SN
BECMG 1217/1218 26009KT 9999 BKN010 620107 QNH2996INS
BECMG 1307/1308 22015G25KT 9999 BKN020 620207 510002 QNH2990INS
TEMPO 1309/1316 22020G35KT 520004 TX06/1213Z TNM01/1303Z
No reported NOTAMs for that airfield.



MET'MAP, your aeronautical weather chart ! - Copyright ORBIFLY December 2007 - Disclaimer

ORBIFLY MET'MAP TEAM :

Programming & Development : Alexandra Zaïnal
Concept & Development : Baudouin d'Aumeries
Co-Development & Prog : Marc-Olivier Méhu
Technical & hardware support : Manuel Goepfert

Contact : metmap@orbifly.com




SOURCES & CREDITS :

   NOAA